sensor_id;sensor_type;location;lat;lon;timestamp;P1;durP1;ratioP1;P2;durP2;ratioP2
14975;SDS011;7584;60.468;25.126;2022-09-02T00:03:49;1.40;;;1.10;;
14975;SDS011;7584;60.468;25.126;2022-09-02T00:06:14;3.07;;;1.10;;
14975;SDS011;7584;60.468;25.126;2022-09-02T00:08:40;1.60;;;1.00;;
14975;SDS011;7584;60.468;25.126;2022-09-02T00:11:06;3.10;;;0.80;;
14975;SDS011;7584;60.468;25.126;2022-09-02T00:13:34;1.27;;;0.93;;
14975;SDS011;7584;60.468;25.126;2022-09-02T00:16:00;1.23;;;0.80;;
14975;SDS011;7584;60.468;25.126;2022-09-02T00:18:25;1.50;;;0.97;;
14975;SDS011;7584;60.468;25.126;2022-09-02T00:20:51;0.80;;;0.80;;
14975;SDS011;7584;60.468;25.126;2022-09-02T00:23:17;1.47;;;1.10;;
14975;SDS011;7584;60.468;25.126;2022-09-02T00:25:43;1.20;;;0.80;;
14975;SDS011;7584;60.468;25.126;2022-09-02T00:28:09;1.47;;;0.90;;
14975;SDS011;7584;60.468;25.126;2022-09-02T00:30:34;1.03;;;0.87;;
14975;SDS011;7584;60.468;25.126;2022-09-02T00:33:00;1.37;;;1.07;;
14975;SDS011;7584;60.468;25.126;2022-09-02T00:35:25;1.27;;;0.80;;
14975;SDS011;7584;60.468;25.126;2022-09-02T00:37:51;1.13;;;1.03;;
14975;SDS011;7584;60.468;25.126;2022-09-02T00:40:16;1.67;;;1.07;;
14975;SDS011;7584;60.468;25.126;2022-09-02T00:42:41;2.03;;;1.20;;
14975;SDS011;7584;60.468;25.126;2022-09-02T00:45:07;3.07;;;1.17;;
14975;SDS011;7584;60.468;25.126;2022-09-02T00:47:33;1.77;;;1.00;;
14975;SDS011;7584;60.468;25.126;2022-09-02T00:50:01;1.63;;;1.07;;
14975;SDS011;7584;60.468;25.126;2022-09-02T00:52:29;5.03;;;1.10;;
14975;SDS011;7584;60.468;25.126;2022-09-02T00:54:56;1.17;;;0.87;;
14975;SDS011;7584;60.468;25.126;2022-09-02T00:57:24;1.40;;;0.90;;
14975;SDS011;7584;60.468;25.126;2022-09-02T01:00:06;1.00;;;0.90;;
14975;SDS011;7584;60.468;25.126;2022-09-02T01:02:33;0.93;;;0.80;;
14975;SDS011;7584;60.468;25.126;2022-09-02T01:04:59;1.17;;;0.77;;
14975;SDS011;7584;60.468;25.126;2022-09-02T01:07:30;1.20;;;0.80;;
14975;SDS011;7584;60.468;25.126;2022-09-02T01:09:58;1.00;;;0.80;;
14975;SDS011;7584;60.468;25.126;2022-09-02T01:12:23;1.53;;;1.10;;
14975;SDS011;7584;60.468;25.126;2022-09-02T01:14:52;1.50;;;1.20;;
14975;SDS011;7584;60.468;25.126;2022-09-02T01:17:17;1.30;;;0.70;;
14975;SDS011;7584;60.468;25.126;2022-09-02T01:19:43;2.63;;;0.93;;
14975;SDS011;7584;60.468;25.126;2022-09-02T01:22:23;1.57;;;1.30;;
14975;SDS011;7584;60.468;25.126;2022-09-02T01:24:48;1.20;;;0.90;;
14975;SDS011;7584;60.468;25.126;2022-09-02T01:27:18;1.30;;;1.10;;
14975;SDS011;7584;60.468;25.126;2022-09-02T01:29:44;1.57;;;1.27;;
14975;SDS011;7584;60.468;25.126;2022-09-02T01:32:10;1.53;;;1.10;;
14975;SDS011;7584;60.468;25.126;2022-09-02T01:34:36;3.10;;;0.83;;
14975;SDS011;7584;60.468;25.126;2022-09-02T01:37:01;1.50;;;1.07;;
14975;SDS011;7584;60.468;25.126;2022-09-02T01:39:27;1.37;;;0.90;;
14975;SDS011;7584;60.468;25.126;2022-09-02T01:41:52;1.43;;;0.90;;
14975;SDS011;7584;60.468;25.126;2022-09-02T01:44:17;1.43;;;1.20;;
14975;SDS011;7584;60.468;25.126;2022-09-02T01:46:43;2.07;;;0.80;;
14975;SDS011;7584;60.468;25.126;2022-09-02T01:49:08;2.03;;;1.00;;
14975;SDS011;7584;60.468;25.126;2022-09-02T01:51:33;2.07;;;0.90;;
14975;SDS011;7584;60.468;25.126;2022-09-02T01:53:59;1.20;;;0.80;;
14975;SDS011;7584;60.468;25.126;2022-09-02T01:56:24;1.43;;;1.00;;
14975;SDS011;7584;60.468;25.126;2022-09-02T01:58:49;1.20;;;0.83;;
14975;SDS011;7584;60.468;25.126;2022-09-02T02:01:14;2.17;;;1.03;;
14975;SDS011;7584;60.468;25.126;2022-09-02T02:03:40;1.30;;;0.90;;
14975;SDS011;7584;60.468;25.126;2022-09-02T02:06:09;1.50;;;0.90;;
14975;SDS011;7584;60.468;25.126;2022-09-02T02:08:35;1.37;;;1.07;;
14975;SDS011;7584;60.468;25.126;2022-09-02T02:11:00;1.17;;;1.07;;
14975;SDS011;7584;60.468;25.126;2022-09-02T02:13:26;2.40;;;1.00;;
14975;SDS011;7584;60.468;25.126;2022-09-02T02:15:51;1.10;;;1.00;;
14975;SDS011;7584;60.468;25.126;2022-09-02T02:18:17;3.47;;;0.90;;
14975;SDS011;7584;60.468;25.126;2022-09-02T02:20:42;1.80;;;0.73;;
14975;SDS011;7584;60.468;25.126;2022-09-02T02:23:08;1.73;;;0.97;;
14975;SDS011;7584;60.468;25.126;2022-09-02T02:25:33;1.10;;;0.97;;
14975;SDS011;7584;60.468;25.126;2022-09-02T02:27:59;1.63;;;1.13;;
14975;SDS011;7584;60.468;25.126;2022-09-02T02:30:24;1.20;;;1.10;;
14975;SDS011;7584;60.468;25.126;2022-09-02T02:32:49;0.97;;;0.63;;
14975;SDS011;7584;60.468;25.126;2022-09-02T02:35:15;1.13;;;1.03;;
14975;SDS011;7584;60.468;25.126;2022-09-02T02:37:41;1.30;;;1.00;;
14975;SDS011;7584;60.468;25.126;2022-09-02T02:40:06;1.23;;;0.90;;
14975;SDS011;7584;60.468;25.126;2022-09-02T02:42:32;1.07;;;0.90;;
14975;SDS011;7584;60.468;25.126;2022-09-02T02:44:58;1.07;;;0.90;;
14975;SDS011;7584;60.468;25.126;2022-09-02T02:47:23;1.27;;;1.00;;
14975;SDS011;7584;60.468;25.126;2022-09-02T02:49:49;2.90;;;0.90;;
14975;SDS011;7584;60.468;25.126;2022-09-02T02:52:14;1.47;;;1.10;;
14975;SDS011;7584;60.468;25.126;2022-09-02T02:54:40;1.53;;;0.90;;
14975;SDS011;7584;60.468;25.126;2022-09-02T02:57:06;1.30;;;0.87;;
14975;SDS011;7584;60.468;25.126;2022-09-02T02:59:31;1.50;;;0.93;;
14975;SDS011;7584;60.468;25.126;2022-09-02T03:01:57;1.73;;;1.20;;
14975;SDS011;7584;60.468;25.126;2022-09-02T03:04:22;1.53;;;1.07;;
14975;SDS011;7584;60.468;25.126;2022-09-02T03:06:48;1.27;;;1.00;;
14975;SDS011;7584;60.468;25.126;2022-09-02T03:09:15;2.27;;;1.00;;
14975;SDS011;7584;60.468;25.126;2022-09-02T03:11:40;2.07;;;1.23;;
14975;SDS011;7584;60.468;25.126;2022-09-02T03:14:05;1.60;;;1.27;;
14975;SDS011;7584;60.468;25.126;2022-09-02T03:16:32;1.70;;;1.03;;
14975;SDS011;7584;60.468;25.126;2022-09-02T03:18:58;1.67;;;1.33;;
14975;SDS011;7584;60.468;25.126;2022-09-02T03:21:23;1.07;;;0.97;;
14975;SDS011;7584;60.468;25.126;2022-09-02T03:23:48;1.57;;;1.10;;
14975;SDS011;7584;60.468;25.126;2022-09-02T03:26:16;1.80;;;1.00;;
14975;SDS011;7584;60.468;25.126;2022-09-02T03:28:42;1.77;;;1.10;;
14975;SDS011;7584;60.468;25.126;2022-09-02T03:31:11;1.47;;;1.10;;
14975;SDS011;7584;60.468;25.126;2022-09-02T03:33:37;2.73;;;1.40;;
14975;SDS011;7584;60.468;25.126;2022-09-02T03:36:02;2.87;;;1.10;;
14975;SDS011;7584;60.468;25.126;2022-09-02T03:38:28;2.17;;;1.27;;
14975;SDS011;7584;60.468;25.126;2022-09-02T03:40:53;2.90;;;1.47;;
14975;SDS011;7584;60.468;25.126;2022-09-02T03:43:18;4.17;;;1.20;;
14975;SDS011;7584;60.468;25.126;2022-09-02T03:45:43;2.17;;;1.27;;
14975;SDS011;7584;60.468;25.126;2022-09-02T03:48:10;1.70;;;1.17;;
14975;SDS011;7584;60.468;25.126;2022-09-02T03:50:37;1.97;;;1.10;;
14975;SDS011;7584;60.468;25.126;2022-09-02T03:53:04;1.87;;;1.20;;
14975;SDS011;7584;60.468;25.126;2022-09-02T03:55:30;1.77;;;1.10;;
14975;SDS011;7584;60.468;25.126;2022-09-02T03:57:55;1.00;;;0.90;;
14975;SDS011;7584;60.468;25.126;2022-09-02T04:00:21;1.27;;;1.00;;
14975;SDS011;7584;60.468;25.126;2022-09-02T04:02:53;4.53;;;1.23;;
14975;SDS011;7584;60.468;25.126;2022-09-02T04:05:19;3.03;;;0.97;;
14975;SDS011;7584;60.468;25.126;2022-09-02T04:07:46;4.80;;;1.20;;
14975;SDS011;7584;60.468;25.126;2022-09-02T04:10:11;3.47;;;1.57;;
14975;SDS011;7584;60.468;25.126;2022-09-02T04:12:36;1.37;;;1.10;;
14975;SDS011;7584;60.468;25.126;2022-09-02T04:15:05;4.20;;;1.20;;
14975;SDS011;7584;60.468;25.126;2022-09-02T04:17:31;3.83;;;1.80;;
14975;SDS011;7584;60.468;25.126;2022-09-02T04:19:56;1.27;;;1.00;;
14975;SDS011;7584;60.468;25.126;2022-09-02T04:22:21;2.23;;;1.20;;
14975;SDS011;7584;60.468;25.126;2022-09-02T04:24:46;2.73;;;1.07;;
14975;SDS011;7584;60.468;25.126;2022-09-02T04:27:12;1.77;;;1.20;;
14975;SDS011;7584;60.468;25.126;2022-09-02T04:29:37;2.73;;;1.20;;
14975;SDS011;7584;60.468;25.126;2022-09-02T04:32:03;2.10;;;1.03;;
14975;SDS011;7584;60.468;25.126;2022-09-02T04:34:28;1.73;;;1.10;;
14975;SDS011;7584;60.468;25.126;2022-09-02T04:36:53;1.40;;;0.97;;
14975;SDS011;7584;60.468;25.126;2022-09-02T04:39:19;3.23;;;1.20;;
14975;SDS011;7584;60.468;25.126;2022-09-02T04:41:44;1.57;;;1.30;;
14975;SDS011;7584;60.468;25.126;2022-09-02T04:44:10;3.47;;;1.00;;
14975;SDS011;7584;60.468;25.126;2022-09-02T04:46:35;4.00;;;0.90;;
14975;SDS011;7584;60.468;25.126;2022-09-02T04:49:02;2.13;;;0.83;;
14975;SDS011;7584;60.468;25.126;2022-09-02T04:51:27;2.23;;;1.10;;
14975;SDS011;7584;60.468;25.126;2022-09-02T04:53:53;2.23;;;1.10;;
14975;SDS011;7584;60.468;25.126;2022-09-02T04:56:20;2.20;;;1.20;;
14975;SDS011;7584;60.468;25.126;2022-09-02T04:58:46;1.23;;;0.93;;
14975;SDS011;7584;60.468;25.126;2022-09-02T05:01:15;3.20;;;1.00;;
14975;SDS011;7584;60.468;25.126;2022-09-02T05:03:42;1.10;;;0.87;;
14975;SDS011;7584;60.468;25.126;2022-09-02T05:06:09;2.47;;;1.00;;
14975;SDS011;7584;60.468;25.126;2022-09-02T05:08:35;2.63;;;1.00;;
14975;SDS011;7584;60.468;25.126;2022-09-02T05:11:04;0.90;;;0.83;;
14975;SDS011;7584;60.468;25.126;2022-09-02T05:13:29;1.40;;;0.87;;
14975;SDS011;7584;60.468;25.126;2022-09-02T05:15:54;4.10;;;1.00;;
14975;SDS011;7584;60.468;25.126;2022-09-02T05:18:19;0.80;;;0.80;;
14975;SDS011;7584;60.468;25.126;2022-09-02T05:20:45;1.00;;;0.60;;
14975;SDS011;7584;60.468;25.126;2022-09-02T05:23:10;1.57;;;0.80;;
14975;SDS011;7584;60.468;25.126;2022-09-02T05:25:36;0.50;;;0.50;;
14975;SDS011;7584;60.468;25.126;2022-09-02T05:28:02;0.80;;;0.80;;
14975;SDS011;7584;60.468;25.126;2022-09-02T05:30:27;1.27;;;0.90;;
14975;SDS011;7584;60.468;25.126;2022-09-02T05:32:53;2.40;;;0.83;;
14975;SDS011;7584;60.468;25.126;2022-09-02T05:35:18;3.27;;;1.17;;
14975;SDS011;7584;60.468;25.126;2022-09-02T05:37:44;2.13;;;0.70;;
14975;SDS011;7584;60.468;25.126;2022-09-02T05:40:09;0.97;;;0.80;;
14975;SDS011;7584;60.468;25.126;2022-09-02T05:42:37;1.20;;;0.73;;
14975;SDS011;7584;60.468;25.126;2022-09-02T05:45:02;0.90;;;0.80;;
14975;SDS011;7584;60.468;25.126;2022-09-02T05:47:28;0.93;;;0.70;;
14975;SDS011;7584;60.468;25.126;2022-09-02T05:49:53;1.47;;;0.90;;
14975;SDS011;7584;60.468;25.126;2022-09-02T05:52:18;2.63;;;1.00;;
14975;SDS011;7584;60.468;25.126;2022-09-02T05:54:44;1.00;;;0.90;;
14975;SDS011;7584;60.468;25.126;2022-09-02T05:57:11;1.87;;;0.80;;
14975;SDS011;7584;60.468;25.126;2022-09-02T05:59:36;1.30;;;0.80;;
14975;SDS011;7584;60.468;25.126;2022-09-02T06:02:06;1.40;;;0.70;;
14975;SDS011;7584;60.468;25.126;2022-09-02T06:04:35;0.70;;;0.50;;
14975;SDS011;7584;60.468;25.126;2022-09-02T06:07:01;0.97;;;0.50;;
14975;SDS011;7584;60.468;25.126;2022-09-02T06:09:26;2.47;;;0.90;;
14975;SDS011;7584;60.468;25.126;2022-09-02T06:11:51;1.63;;;0.70;;
14975;SDS011;7584;60.468;25.126;2022-09-02T06:14:20;2.60;;;0.70;;
14975;SDS011;7584;60.468;25.126;2022-09-02T06:16:46;0.60;;;0.60;;
14975;SDS011;7584;60.468;25.126;2022-09-02T06:19:12;0.80;;;0.63;;
14975;SDS011;7584;60.468;25.126;2022-09-02T06:21:37;1.27;;;0.73;;
14975;SDS011;7584;60.468;25.126;2022-09-02T06:24:04;1.13;;;0.70;;
14975;SDS011;7584;60.468;25.126;2022-09-02T06:26:30;1.13;;;0.70;;
14975;SDS011;7584;60.468;25.126;2022-09-02T06:28:55;1.20;;;0.50;;
14975;SDS011;7584;60.468;25.126;2022-09-02T06:31:21;1.53;;;0.70;;
14975;SDS011;7584;60.468;25.126;2022-09-02T06:33:47;5.23;;;0.70;;
14975;SDS011;7584;60.468;25.126;2022-09-02T06:36:15;1.87;;;0.60;;
14975;SDS011;7584;60.468;25.126;2022-09-02T06:38:42;1.13;;;0.70;;
14975;SDS011;7584;60.468;25.126;2022-09-02T06:41:09;1.53;;;0.53;;
14975;SDS011;7584;60.468;25.126;2022-09-02T06:43:35;1.67;;;0.73;;
14975;SDS011;7584;60.468;25.126;2022-09-02T06:46:00;2.67;;;0.80;;
14975;SDS011;7584;60.468;25.126;2022-09-02T06:48:25;2.13;;;0.60;;
14975;SDS011;7584;60.468;25.126;2022-09-02T06:50:51;3.13;;;0.60;;
14975;SDS011;7584;60.468;25.126;2022-09-02T06:53:17;1.77;;;0.40;;
14975;SDS011;7584;60.468;25.126;2022-09-02T06:55:45;5.00;;;0.70;;
14975;SDS011;7584;60.468;25.126;2022-09-02T06:58:10;0.73;;;0.40;;
14975;SDS011;7584;60.468;25.126;2022-09-02T07:00:36;2.00;;;0.40;;
14975;SDS011;7584;60.468;25.126;2022-09-02T07:03:02;2.93;;;0.53;;
14975;SDS011;7584;60.468;25.126;2022-09-02T07:05:46;3.77;;;0.33;;
14975;SDS011;7584;60.468;25.126;2022-09-02T07:08:11;1.00;;;0.33;;
14975;SDS011;7584;60.468;25.126;2022-09-02T07:10:37;0.83;;;0.30;;
14975;SDS011;7584;60.468;25.126;2022-09-02T07:13:03;10.33;;;0.87;;
14975;SDS011;7584;60.468;25.126;2022-09-02T07:15:28;3.83;;;0.40;;
14975;SDS011;7584;60.468;25.126;2022-09-02T07:17:54;0.45;;;0.30;;
14975;SDS011;7584;60.468;25.126;2022-09-02T07:20:19;1.70;;;0.30;;
14975;SDS011;7584;60.468;25.126;2022-09-02T07:22:44;0.57;;;0.40;;
14975;SDS011;7584;60.468;25.126;2022-09-02T07:25:10;1.75;;;0.40;;
14975;SDS011;7584;60.468;25.126;2022-09-02T07:27:35;6.40;;;0.68;;
14975;SDS011;7584;60.468;25.126;2022-09-02T07:30:01;2.00;;;0.43;;
14975;SDS011;7584;60.468;25.126;2022-09-02T07:32:29;2.15;;;0.30;;
14975;SDS011;7584;60.468;25.126;2022-09-02T07:34:55;2.05;;;0.40;;
14975;SDS011;7584;60.468;25.126;2022-09-02T07:37:20;2.60;;;0.43;;
14975;SDS011;7584;60.468;25.126;2022-09-02T07:39:45;3.20;;;0.60;;
14975;SDS011;7584;60.468;25.126;2022-09-02T07:42:11;3.55;;;0.40;;
14975;SDS011;7584;60.468;25.126;2022-09-02T07:44:36;11.02;;;0.80;;
14975;SDS011;7584;60.468;25.126;2022-09-02T07:47:02;5.25;;;0.32;;
14975;SDS011;7584;60.468;25.126;2022-09-02T07:49:27;6.70;;;0.45;;
14975;SDS011;7584;60.468;25.126;2022-09-02T07:51:52;2.72;;;0.40;;
14975;SDS011;7584;60.468;25.126;2022-09-02T07:54:21;2.70;;;0.55;;
14975;SDS011;7584;60.468;25.126;2022-09-02T07:56:48;8.25;;;0.50;;
14975;SDS011;7584;60.468;25.126;2022-09-02T07:59:13;2.65;;;0.40;;
14975;SDS011;7584;60.468;25.126;2022-09-02T08:01:39;2.05;;;0.25;;
14975;SDS011;7584;60.468;25.126;2022-09-02T08:04:07;1.58;;;0.40;;
14975;SDS011;7584;60.468;25.126;2022-09-02T08:06:32;1.52;;;0.35;;
14975;SDS011;7584;60.468;25.126;2022-09-02T08:08:58;3.85;;;0.50;;
14975;SDS011;7584;60.468;25.126;2022-09-02T08:11:23;1.92;;;0.20;;
14975;SDS011;7584;60.468;25.126;2022-09-02T08:13:49;0.55;;;0.13;;
14975;SDS011;7584;60.468;25.126;2022-09-02T08:16:15;0.77;;;0.30;;
14975;SDS011;7584;60.468;25.126;2022-09-02T08:18:40;1.45;;;0.20;;
14975;SDS011;7584;60.468;25.126;2022-09-02T08:21:06;0.93;;;0.38;;
14975;SDS011;7584;60.468;25.126;2022-09-02T08:23:31;0.55;;;0.40;;
14975;SDS011;7584;60.468;25.126;2022-09-02T08:26:00;0.40;;;0.22;;
14975;SDS011;7584;60.468;25.126;2022-09-02T08:28:27;1.25;;;0.30;;
14975;SDS011;7584;60.468;25.126;2022-09-02T08:30:52;0.80;;;0.28;;
14975;SDS011;7584;60.468;25.126;2022-09-02T08:33:18;0.95;;;0.20;;
14975;SDS011;7584;60.468;25.126;2022-09-02T08:35:44;0.70;;;0.30;;
14975;SDS011;7584;60.468;25.126;2022-09-02T08:38:09;0.73;;;0.22;;
14975;SDS011;7584;60.468;25.126;2022-09-02T08:40:41;0.60;;;0.35;;
14975;SDS011;7584;60.468;25.126;2022-09-02T08:43:18;0.68;;;0.30;;
14975;SDS011;7584;60.468;25.126;2022-09-02T08:45:50;2.05;;;0.20;;
14975;SDS011;7584;60.468;25.126;2022-09-02T08:48:19;4.15;;;0.30;;
14975;SDS011;7584;60.468;25.126;2022-09-02T08:50:46;0.73;;;0.30;;
14975;SDS011;7584;60.468;25.126;2022-09-02T08:55:46;0.40;;;0.20;;
14975;SDS011;7584;60.468;25.126;2022-09-02T08:58:15;1.35;;;0.20;;
14975;SDS011;7584;60.468;25.126;2022-09-02T09:00:41;2.05;;;0.20;;
14975;SDS011;7584;60.468;25.126;2022-09-02T09:03:27;0.15;;;0.10;;
14975;SDS011;7584;60.468;25.126;2022-09-02T09:05:58;0.45;;;0.20;;
14975;SDS011;7584;60.468;25.126;2022-09-02T09:08:28;0.47;;;0.22;;
14975;SDS011;7584;60.468;25.126;2022-09-02T09:11:30;0.10;;;0.10;;
14975;SDS011;7584;60.468;25.126;2022-09-02T09:16:46;0.10;;;0.10;;
14975;SDS011;7584;60.468;25.126;2022-09-02T09:19:14;0.82;;;0.15;;
14975;SDS011;7584;60.468;25.126;2022-09-02T09:21:40;2.67;;;0.20;;
14975;SDS011;7584;60.468;25.126;2022-09-02T09:24:17;0.60;;;0.20;;
14975;SDS011;7584;60.468;25.126;2022-09-02T09:26:45;0.68;;;0.35;;
14975;SDS011;7584;60.468;25.126;2022-09-02T09:29:11;1.98;;;0.30;;
14975;SDS011;7584;60.468;25.126;2022-09-02T09:31:37;1.27;;;0.13;;
14975;SDS011;7584;60.468;25.126;2022-09-02T09:34:06;0.43;;;0.20;;
14975;SDS011;7584;60.468;25.126;2022-09-02T09:42:00;1.35;;;0.20;;
14975;SDS011;7584;60.468;25.126;2022-09-02T09:44:34;0.85;;;0.40;;
14975;SDS011;7584;60.468;25.126;2022-09-02T09:47:18;0.40;;;0.30;;
14975;SDS011;7584;60.468;25.126;2022-09-02T09:49:45;0.88;;;0.43;;
14975;SDS011;7584;60.468;25.126;2022-09-02T09:52:10;0.17;;;0.17;;
14975;SDS011;7584;60.468;25.126;2022-09-02T09:54:36;0.40;;;0.20;;
14975;SDS011;7584;60.468;25.126;2022-09-02T09:57:15;0.50;;;0.20;;
14975;SDS011;7584;60.468;25.126;2022-09-02T09:59:44;1.17;;;0.40;;
14975;SDS011;7584;60.468;25.126;2022-09-02T10:02:24;0.25;;;0.15;;
14975;SDS011;7584;60.468;25.126;2022-09-02T10:05:27;0.30;;;0.20;;
14975;SDS011;7584;60.468;25.126;2022-09-02T10:07:52;0.40;;;0.28;;
14975;SDS011;7584;60.468;25.126;2022-09-02T10:10:38;0.45;;;0.17;;
14975;SDS011;7584;60.468;25.126;2022-09-02T10:13:23;1.08;;;0.20;;
14975;SDS011;7584;60.468;25.126;2022-09-02T10:31:12;0.20;;;0.10;;
14975;SDS011;7584;60.468;25.126;2022-09-02T10:33:45;1.80;;;0.30;;
14975;SDS011;7584;60.468;25.126;2022-09-02T10:38:45;0.22;;;0.20;;
14975;SDS011;7584;60.468;25.126;2022-09-02T10:43:57;0.40;;;0.20;;
14975;SDS011;7584;60.468;25.126;2022-09-02T10:46:24;0.30;;;0.20;;
14975;SDS011;7584;60.468;25.126;2022-09-02T10:56:43;0.25;;;0.20;;
14975;SDS011;7584;60.468;25.126;2022-09-02T10:59:13;3.38;;;0.25;;
14975;SDS011;7584;60.468;25.126;2022-09-02T11:04:15;0.10;;;0.10;;
14975;SDS011;7584;60.468;25.126;2022-09-02T11:06:43;0.80;;;0.20;;
14975;SDS011;7584;60.468;25.126;2022-09-02T11:11:37;0.55;;;0.20;;
14975;SDS011;7584;60.468;25.126;2022-09-02T11:17:22;0.35;;;0.20;;
14975;SDS011;7584;60.468;25.126;2022-09-02T11:19:37;0.40;;;0.20;;
14975;SDS011;7584;60.468;25.126;2022-09-02T11:24:54;0.20;;;0.20;;
14975;SDS011;7584;60.468;25.126;2022-09-02T11:32:22;0.10;;;0.10;;
14975;SDS011;7584;60.468;25.126;2022-09-02T11:34:51;0.45;;;0.10;;
14975;SDS011;7584;60.468;25.126;2022-09-02T11:37:32;1.02;;;0.17;;
14975;SDS011;7584;60.468;25.126;2022-09-02T11:39:59;0.65;;;0.30;;
14975;SDS011;7584;60.468;25.126;2022-09-02T11:42:48;0.68;;;0.35;;
14975;SDS011;7584;60.468;25.126;2022-09-02T11:58:28;0.55;;;0.30;;
14975;SDS011;7584;60.468;25.126;2022-09-02T12:03:20;0.95;;;0.30;;
14975;SDS011;7584;60.468;25.126;2022-09-02T12:05:47;0.38;;;0.28;;
14975;SDS011;7584;60.468;25.126;2022-09-02T12:21:18;0.63;;;0.25;;
14975;SDS011;7584;60.468;25.126;2022-09-02T12:26:14;0.45;;;0.25;;
14975;SDS011;7584;60.468;25.126;2022-09-02T12:28:40;1.85;;;0.25;;
14975;SDS011;7584;60.468;25.126;2022-09-02T12:31:10;0.75;;;0.20;;
14975;SDS011;7584;60.468;25.126;2022-09-02T12:33:46;9.00;;;2.58;;
14975;SDS011;7584;60.468;25.126;2022-09-02T12:53:05;1.98;;;0.57;;
14975;SDS011;7584;60.468;25.126;2022-09-02T12:54:55;14.80;;;0.68;;
14975;SDS011;7584;60.468;25.126;2022-09-02T12:57:20;1.98;;;0.28;;
14975;SDS011;7584;60.468;25.126;2022-09-02T13:00:01;4.28;;;0.32;;
14975;SDS011;7584;60.468;25.126;2022-09-02T13:12:53;0.32;;;0.30;;
14975;SDS011;7584;60.468;25.126;2022-09-02T13:20:31;0.10;;;0.10;;
14975;SDS011;7584;60.468;25.126;2022-09-02T13:23:12;0.60;;;0.30;;
14975;SDS011;7584;60.468;25.126;2022-09-02T13:33:35;0.40;;;0.30;;
14975;SDS011;7584;60.468;25.126;2022-09-02T13:36:00;0.93;;;0.20;;
14975;SDS011;7584;60.468;25.126;2022-09-02T13:38:27;0.60;;;0.30;;
14975;SDS011;7584;60.468;25.126;2022-09-02T13:40:52;0.60;;;0.40;;
14975;SDS011;7584;60.468;25.126;2022-09-02T13:43:19;1.10;;;0.20;;
14975;SDS011;7584;60.468;25.126;2022-09-02T13:45:44;2.10;;;0.30;;
14975;SDS011;7584;60.468;25.126;2022-09-02T13:48:14;0.98;;;0.40;;
14975;SDS011;7584;60.468;25.126;2022-09-02T13:50:44;0.55;;;0.30;;
14975;SDS011;7584;60.468;25.126;2022-09-02T13:53:12;0.75;;;0.30;;
14975;SDS011;7584;60.468;25.126;2022-09-02T13:55:38;0.93;;;0.30;;
14975;SDS011;7584;60.468;25.126;2022-09-02T13:58:05;0.40;;;0.30;;
14975;SDS011;7584;60.468;25.126;2022-09-02T14:00:38;0.97;;;0.40;;
14975;SDS011;7584;60.468;25.126;2022-09-02T14:03:14;0.73;;;0.40;;
14975;SDS011;7584;60.468;25.126;2022-09-02T14:05:42;0.75;;;0.30;;
14975;SDS011;7584;60.468;25.126;2022-09-02T14:08:11;0.40;;;0.40;;
14975;SDS011;7584;60.468;25.126;2022-09-02T14:10:38;0.93;;;0.32;;
14975;SDS011;7584;60.468;25.126;2022-09-02T14:13:05;1.85;;;0.30;;
14975;SDS011;7584;60.468;25.126;2022-09-02T14:15:31;1.35;;;0.40;;
14975;SDS011;7584;60.468;25.126;2022-09-02T14:23:18;1.13;;;0.40;;
14975;SDS011;7584;60.468;25.126;2022-09-02T14:25:59;0.75;;;0.45;;
14975;SDS011;7584;60.468;25.126;2022-09-02T14:28:26;0.87;;;0.30;;
14975;SDS011;7584;60.468;25.126;2022-09-02T14:33:42;1.50;;;0.30;;
14975;SDS011;7584;60.468;25.126;2022-09-02T14:43:48;6.33;;;1.57;;
14975;SDS011;7584;60.468;25.126;2022-09-02T14:46:36;0.83;;;0.20;;
14975;SDS011;7584;60.468;25.126;2022-09-02T14:49:00;0.50;;;0.30;;
14975;SDS011;7584;60.468;25.126;2022-09-02T14:51:30;0.77;;;0.30;;
14975;SDS011;7584;60.468;25.126;2022-09-02T14:53:56;0.30;;;0.20;;
14975;SDS011;7584;60.468;25.126;2022-09-02T14:59:05;0.20;;;0.10;;
14975;SDS011;7584;60.468;25.126;2022-09-02T15:01:31;0.40;;;0.30;;
14975;SDS011;7584;60.468;25.126;2022-09-02T15:04:01;0.97;;;0.90;;
14975;SDS011;7584;60.468;25.126;2022-09-02T15:06:27;1.47;;;1.07;;
14975;SDS011;7584;60.468;25.126;2022-09-02T15:08:52;0.73;;;0.43;;
14975;SDS011;7584;60.468;25.126;2022-09-02T15:11:17;1.07;;;0.30;;
14975;SDS011;7584;60.468;25.126;2022-09-02T15:13:45;0.40;;;0.30;;
14975;SDS011;7584;60.468;25.126;2022-09-02T15:16:10;0.30;;;0.30;;
14975;SDS011;7584;60.468;25.126;2022-09-02T15:18:35;3.20;;;0.30;;
14975;SDS011;7584;60.468;25.126;2022-09-02T15:21:01;0.87;;;0.30;;
14975;SDS011;7584;60.468;25.126;2022-09-02T15:23:27;0.70;;;0.40;;
14975;SDS011;7584;60.468;25.126;2022-09-02T15:25:53;0.40;;;0.40;;
14975;SDS011;7584;60.468;25.126;2022-09-02T15:28:18;3.23;;;0.50;;
14975;SDS011;7584;60.468;25.126;2022-09-02T15:30:44;0.37;;;0.30;;
14975;SDS011;7584;60.468;25.126;2022-09-02T15:33:09;0.97;;;0.47;;
14975;SDS011;7584;60.468;25.126;2022-09-02T15:35:34;0.50;;;0.47;;
14975;SDS011;7584;60.468;25.126;2022-09-02T15:38:00;1.23;;;0.80;;
14975;SDS011;7584;60.468;25.126;2022-09-02T15:40:27;1.67;;;0.50;;
14975;SDS011;7584;60.468;25.126;2022-09-02T15:42:53;0.50;;;0.37;;
14975;SDS011;7584;60.468;25.126;2022-09-02T15:45:20;0.63;;;0.30;;
14975;SDS011;7584;60.468;25.126;2022-09-02T15:47:46;0.57;;;0.33;;
14975;SDS011;7584;60.468;25.126;2022-09-02T15:50:11;0.90;;;0.40;;
14975;SDS011;7584;60.468;25.126;2022-09-02T15:52:36;0.30;;;0.30;;
14975;SDS011;7584;60.468;25.126;2022-09-02T15:55:02;0.40;;;0.30;;
14975;SDS011;7584;60.468;25.126;2022-09-02T15:57:28;0.73;;;0.40;;
14975;SDS011;7584;60.468;25.126;2022-09-02T15:59:53;0.30;;;0.20;;
14975;SDS011;7584;60.468;25.126;2022-09-02T16:02:19;0.53;;;0.30;;
14975;SDS011;7584;60.468;25.126;2022-09-02T16:04:44;0.40;;;0.40;;
14975;SDS011;7584;60.468;25.126;2022-09-02T16:07:09;0.80;;;0.60;;
14975;SDS011;7584;60.468;25.126;2022-09-02T16:09:35;1.17;;;0.50;;
14975;SDS011;7584;60.468;25.126;2022-09-02T16:12:00;0.80;;;0.57;;
14975;SDS011;7584;60.468;25.126;2022-09-02T16:14:25;0.70;;;0.70;;
14975;SDS011;7584;60.468;25.126;2022-09-02T16:16:52;1.47;;;0.60;;
14975;SDS011;7584;60.468;25.126;2022-09-02T16:19:22;0.57;;;0.57;;
14975;SDS011;7584;60.468;25.126;2022-09-02T16:21:50;0.80;;;0.60;;
14975;SDS011;7584;60.468;25.126;2022-09-02T16:24:16;1.17;;;0.60;;
14975;SDS011;7584;60.468;25.126;2022-09-02T16:26:44;1.03;;;0.60;;
14975;SDS011;7584;60.468;25.126;2022-09-02T16:29:10;0.73;;;0.60;;
14975;SDS011;7584;60.468;25.126;2022-09-02T16:31:38;0.60;;;0.60;;
14975;SDS011;7584;60.468;25.126;2022-09-02T16:36:29;0.70;;;0.70;;
14975;SDS011;7584;60.468;25.126;2022-09-02T16:38:55;3.50;;;0.60;;
14975;SDS011;7584;60.468;25.126;2022-09-02T16:41:21;0.93;;;0.77;;
14975;SDS011;7584;60.468;25.126;2022-09-02T16:43:47;0.80;;;0.60;;
14975;SDS011;7584;60.468;25.126;2022-09-02T16:46:12;4.70;;;0.83;;
14975;SDS011;7584;60.468;25.126;2022-09-02T16:48:37;1.00;;;0.70;;
14975;SDS011;7584;60.468;25.126;2022-09-02T16:51:03;2.13;;;1.00;;
14975;SDS011;7584;60.468;25.126;2022-09-02T16:53:29;2.67;;;0.87;;
14975;SDS011;7584;60.468;25.126;2022-09-02T16:55:55;1.37;;;0.77;;
14975;SDS011;7584;60.468;25.126;2022-09-02T16:58:21;0.97;;;0.80;;
14975;SDS011;7584;60.468;25.126;2022-09-02T17:00:47;1.10;;;0.90;;
14975;SDS011;7584;60.468;25.126;2022-09-02T17:03:13;1.50;;;1.17;;
14975;SDS011;7584;60.468;25.126;2022-09-02T17:05:38;2.50;;;1.60;;
14975;SDS011;7584;60.468;25.126;2022-09-02T17:08:04;1.27;;;1.00;;
14975;SDS011;7584;60.468;25.126;2022-09-02T17:10:30;1.50;;;1.10;;
14975;SDS011;7584;60.468;25.126;2022-09-02T17:12:55;1.53;;;1.00;;
14975;SDS011;7584;60.468;25.126;2022-09-02T17:15:21;1.47;;;1.07;;
14975;SDS011;7584;60.468;25.126;2022-09-02T17:17:47;5.33;;;0.83;;